This is the latest recevied weather packets stored in our database for station/object KB6HGN. If no packets are shown the sender has not sent any weather packets the latest 10 day(s).
| Time | Temp. | Humidity | Pressure | Rain* | Wind** | Luminosity | Snow |
|---|---|---|---|---|---|---|---|
| 1777959304 | 14.44° C | 72% | 1015.2 hPa | 0 mm | - | 0 W/m² | - |
| 1777954505 | 15° C | 66% | 1015.5 hPa | 0 mm | - | 0 W/m² | - |
| 1777950604 | 15.56° C | 60% | 1014.9 hPa | 0 mm | - | 0 W/m² | - |
| 1777948505 | 16.67° C | 58% | 1014.9 hPa | 0 mm | - | 0 W/m² | - |
| 1777946404 | 16.67° C | 55% | 1014.5 hPa | 0 mm | - | 9 W/m² | - |
| 1777944604 | 17.22° C | 52% | 1014.5 hPa | 0 mm | - | 72 W/m² | - |
| 1777943104 | 17.78° C | 51% | 1014.7 hPa | 0 mm | - | 138 W/m² | - |
| 1777942804 | 17.78° C | 52% | 1014.5 hPa | 0 mm | - | 164 W/m² | - |
| 1777938904 | 18.89° C | 49% | 1014.5 hPa | 0 mm | - | 473 W/m² | - |
| 1777938004 | 18.89° C | 49% | 1014.2 hPa | 0 mm | - | 488 W/m² | - |
| 1777937705 | 18.89° C | 49% | 1014.2 hPa | 0 mm | - | 480 W/m² | - |
| 1777933805 | 19.44° C | 47% | 1014.6 hPa | 0 mm | - | 705 W/m² | - |
| 1777933205 | 18.89° C | 45% | 1014.9 hPa | 0 mm | - | 737 W/m² | - |
| 1777932004 | 19.44° C | 46% | 1014.9 hPa | 0 mm | - | 721 W/m² | - |
| 1777930505 | 20° C | 44% | 1015.5 hPa | 0 mm | - | 785 W/m² | - |
| 1777928105 | 20.56° C | 43% | 1015.6 hPa | 0 mm | - | 948 W/m² | - |
| 1777927804 | 20° C | 44% | 1015.6 hPa | 0 mm | - | 974 W/m² | - |
| 1777927205 | 19.44° C | 43% | 1015.6 hPa | 0 mm | - | 934 W/m² | - |
| 1777926904 | 19.44° C | 43% | 1015.6 hPa | 0 mm | - | 948 W/m² | - |
| 1777923605 | 20° C | 42% | 1015.9 hPa | 0 mm | - | 916 W/m² | - |
| 1777920604 | 19.44° C | 46% | 1015.9 hPa | 0 mm | - | 968 W/m² | - |
| 1777920005 | 18.89° C | 48% | 1015.9 hPa | 0 mm | - | 848 W/m² | - |
| 1777919704 | 18.89° C | 46% | 1016.2 hPa | 0 mm | - | 862 W/m² | - |
| 1777918505 | 19.44° C | 47% | 1016.2 hPa | 0 mm | - | 835 W/m² | - |
| 1777917005 | 18.33° C | 49% | 1016.2 hPa | 0 mm | - | 783 W/m² | - |
* Rain latest hour (hover to see other rain measurements)
** Current wind speed in m/s (hover to see current wind gust speed)